Station: Meekatharra  

  Atmospheric Gas Attenuation - ITU Rec 676-11   ----------------- dB/100km -----------------
Date Time Temp RH % AH g/m3 Dew Point Wind Direction Speed kph Gust kph Barometer mB Rainfall Since 9am 24GHz 47GHz 76GHz 122GHz 134GHz 241GHz
08/05 09:20 17 46 6.66 5.3 30 35 1026.5 0 15.3 22.5 31.6 82.3 71.6 244.8
08/05 09:10 17.1 46 6.7 5.4 30 37 1026.4 0 15.4 22.6 31.7 82.6 72.0 246.2
08/05 09:00 16.8 48 6.86 5.7 30 37 1026.4 0 15.8 22.9 32.4 84.4 74.2 253.8
08/05 08:50 16.1 50 6.85 5.7 20 24 1026.5 0 15.8 23.0 32.6 85.1 74.7 255.6
08/05 08:40 15.6 52 6.92 5.8 20 30 1026.6 0 15.9 23.3 33.1 86.3 76.0 260.2
08/05 08:30 15.2 53 6.88 5.7 26 37 1026.6 0 15.9 23.3 33.1 86.3 75.9 259.8
08/05 08:20 14.6 54 6.76 5.4 28 35 1026.6 0 15.6 23.3 32.9 85.8 75.0 256.5
08/05 08:10 14.2 55 6.72 5.3 26 30 1026.5 0 15.6 23.3 32.9 85.8 74.9 256.1
08/05 08:00 14 56 6.75 5.4 22 32 1026.4 0 15.6 23.4 33.1 86.3 75.5 258.0
08/05 07:50 13.5 58 6.78 5.4 24 26 1026.5 0 15.7 23.6 33.4 87.2 76.3 260.9
08/05 07:40 13.2 59 6.77 5.4 19 24 1026.4 0 15.7 23.7 33.5 87.4 76.5 261.5
08/05 07:30 12.8 60 6.72 5.2 20 26 1026.4 0 15.6 23.7 33.5 87.3 76.2 260.6
08/05 07:20 12.5 61 6.71 5.2 19 22 1026.3 0 15.6 23.7 33.5 87.5 76.4 261.1
08/05 07:10 12.2 62 6.69 5.1 19 24 1026.1 0 15.6 23.8 33.6 87.6 76.4 261.1
08/05 07:00 11.9 63 6.67 5.1 20 26 1026 0 15.5 23.8 33.6 87.7 76.5 261.2
08/05 06:50 11.8 63 6.63 5 22 26 1025.9 0 15.5 23.8 33.5 87.4 76.0 259.7
08/05 06:40 11.6 64 6.65 5 20 24 1025.8 0 15.5 23.9 33.7 87.8 76.5 261.2
08/05 06:30 11.6 63 6.55 4.8 20 26 1025.8 0 15.3 23.7 33.3 86.8 75.2 256.8
08/05 06:20 11.7 63 6.59 4.9 19 22 1025.7 0 15.4 23.7 33.4 87.1 75.6 258.2
08/05 06:10 11.7 63 6.59 4.9 20 26 1025.7 0 15.4 23.7 33.4 87.1 75.6 258.2
08/05 06:00 11.9 62 6.57 4.9 20 28 1025.7 0 15.3 23.7 33.2 86.7 75.2 256.7
08/05 05:50 11.9 62 6.57 4.9 20 24 1025.7 0 15.3 23.7 33.2 86.7 75.2 256.7
08/05 05:40 12 62 6.61 5 19 20 1025.6 0 15.4 23.7 33.3 87.0 75.6 258.1
08/05 05:30 12 62 6.61 5 19 24 1025.6 0 15.4 23.7 33.3 87.0 75.6 258.1
08/05 05:20 12.1 61 6.54 4.8 17 20 1025.5 0 15.3 23.6 33.0 86.1 74.6 254.7
08/05 05:10 12.5 60 6.6 5 19 22 1025.5 0 15.4 23.5 33.1 86.3 75.0 256.0
08/05 05:00 12.6 59 6.53 4.8 19 26 1025.3 0 15.2 23.4 32.8 85.5 74.0 252.6
08/05 04:50 12.8 59 6.61 5 19 20 1025.3 0 15.4 23.5 33.0 86.1 74.8 255.5
08/05 04:40 12.9 58 6.54 4.8 17 24 1025.1 0 15.2 23.3 32.7 85.2 73.8 252.0
08/05 04:30 13 58 6.58 4.9 20 22 1025.1 0 15.3 23.4 32.8 85.5 74.2 253.5
08/05 04:20 13 58 6.58 4.9 19 20 1025 0 15.3 23.4 32.8 85.5 74.2 253.5
08/05 04:10 13.1 58 6.62 5 22 26 1025 0 15.4 23.4 32.9 85.8 74.6 254.9
08/05 04:00 13.3 58 6.7 5.2 22 32 1024.9 0 15.6 23.5 33.1 86.4 75.4 257.7
08/05 03:50 13.3 58 6.7 5.2 22 30 1024.8 0 15.6 23.5 33.1 86.4 75.4 257.7
08/05 03:40 13.4 57 6.63 5.1 20 24 1024.8 0 15.4 23.3 32.8 85.6 74.4 254.3
08/05 03:30 13.5 57 6.67 5.2 24 33 1024.8 0 15.5 23.4 32.9 85.9 74.8 255.8
08/05 03:20 13.6 57 6.71 5.3 24 30 1024.9 0 15.6 23.4 33.0 86.2 75.3 257.2
08/05 03:10 13.8 57 6.79 5.4 30 35 1024.9 0 15.7 23.5 33.2 86.8 76.1 260.0
08/05 03:00 13.8 56 6.67 5.2 24 33 1024.9 0 15.5 23.3 32.8 85.6 74.6 254.8
08/05 02:50 13.8 56 6.67 5.2 26 32 1024.9 0 15.5 23.3 32.8 85.6 74.6 254.8
08/05 02:40 13.9 56 6.71 5.3 24 32 1024.9 0 15.6 23.3 32.9 85.9 75.0 256.2
08/05 02:30 13.9 55 6.59 5 22 33 1024.9 0 15.3 23.1 32.5 84.7 73.5 251.0
08/05 02:20 14 55 6.63 5.1 20 24 1024.9 0 15.4 23.2 32.6 85.0 73.9 252.5
08/05 02:10 14.2 54 6.59 5 20 30 1025 0 15.3 23.1 32.3 84.4 73.2 250.1
08/05 02:00 14.4 53 6.55 5 24 35 1025.2 0 15.2 23.0 32.1 83.8 72.6 247.8
08/05 01:50 14.5 53 6.59 5 20 26 1025.1 0 15.3 23.0 32.2 84.1 72.9 249.2
08/05 01:40 14.8 52 6.59 5.1 22 30 1025.3 0 15.3 22.9 32.1 83.8 72.7 248.3
08/05 01:30 14.8 51 6.46 4.8 22 32 1025.3 0 15.0 22.7 31.6 82.5 71.1 242.8
08/05 01:20 15.1 51 6.58 5 26 30 1025.3 0 15.2 22.8 32.0 83.4 72.3 247.0
08/05 01:10 15.1 51 6.58 5 24 28 1025.4 0 15.2 22.9 32.0 83.4 72.3 247.0
08/05 01:00 15.2 50 6.49 4.9 22 30 1025.3 0 15.0 22.7 31.6 82.4 71.1 242.9
08/05 00:50 15.2 50 6.49 4.9 22 26 1025.3 0 15.0 22.7 31.6 82.4 71.1 242.9
08/05 00:40 15.3 49 6.4 4.7 19 20 1025.4 0 14.8 22.5 31.2 81.4 69.9 238.8
08/05 00:30 15.4 49 6.44 4.8 20 30 1025.4 0 14.9 22.6 31.3 81.7 70.3 240.2
08/05 00:20 15.3 49 6.4 4.7 19 24 1025.3 0 14.8 22.5 31.2 81.4 69.9 238.8
08/05 00:10 15.4 48 6.31 4.5 17 20 1025.3 0 14.7 22.4 30.9 80.4 68.8 234.7
08/05 00:00 15.6 48 6.38 4.6 19 24 1025.3 0 14.8 22.4 31.0 80.9 69.4 237.0
07/05 23:50 15.8 47 6.33 4.5 20 24 1025.3 0 14.7 22.3 30.8 80.2 68.7 234.4
07/05 23:40 15.9 47 6.36 4.6 22 26 1025.1 0 14.7 22.3 30.8 80.4 68.9 235.3
07/05 23:30 15.9 46 6.23 4.3 19 26 1025.2 0 14.5 22.1 30.4 79.1 67.4 229.9
07/05 23:20 15.9 46 6.23 4.3 19 22 1025.1 0 14.5 22.1 30.4 79.1 67.4 229.9
07/05 23:10 15.9 46 6.23 4.3 19 20 1025.1 0 14.5 22.1 30.4 79.1 67.4 229.9
07/05 23:00 16 45 6.13 4.1 17 22 1025.2 0 14.3 22.0 30.0 78.1 66.1 225.5
07/05 22:50 16 44 5.99 3.8 17 19 1025 0 14.0 21.8 29.5 76.7 64.5 219.7
07/05 22:40 15.9 43 5.82 3.4 17 17 1025.1 0 13.6 21.5 28.9 75.2 62.6 213.0
07/05 22:30 15.9 42 5.69 3 15 20 1025 0 13.3 21.4 28.5 74.0 61.1 207.7
07/05 22:20 16 41 5.59 2.8 15 17 1024.9 0 13.1 21.2 28.1 73.0 59.8 203.3
07/05 22:10 16 40 5.45 2.4 13 15 1025 0 12.8 21.0 27.6 71.7 58.2 197.7
07/05 22:00 16.2 39 5.38 2.2 13 19 1025 0 12.7 20.8 27.3 70.9 57.3 194.4
07/05 21:50 16.5 38 5.34 2.2 15 19 1024.9 0 12.6 20.7 27.0 70.2 56.6 192.1
07/05 21:40 16.6 37 5.23 1.9 17 19 1024.9 0 12.3 20.5 26.6 69.1 55.3 187.5
07/05 21:30 16.6 36 5.09 1.5 13 17 1024.8 0 12.0 20.3 26.2 67.9 53.7 181.9
07/05 21:20 17.1 35 5.09 1.5 15 17 1024.8 0 12.0 20.2 26.0 67.5 53.4 180.8
07/05 21:10 17.4 34 5.04 1.4 13 15 1024.7 0 11.9 20.1 25.7 66.7 52.6 178.2
07/05 21:00 17.8 34 5.16 1.7 17 20 1024.5 0 12.2 20.2 26.0 67.5 53.7 182.0
07/05 20:50 18 33 5.07 1.5 19 22 1024.5 0 12.0 20.0 25.6 66.5 52.6 178.1
07/05 20:40 18.1 33 5.1 1.6 17 19 1024.4 0 12.0 20.0 25.7 66.7 52.8 179.0
07/05 20:30 18.2 33 5.13 1.7 17 24 1024.3 0 12.1 20.0 25.8 66.9 53.1 179.9
07/05 20:20 18.4 32 5.03 1.4 17 20 1024.2 0 11.9 19.9 25.4 65.8 51.9 175.6
07/05 20:10 18.5 32 5.06 1.5 19 20 1024.2 0 11.9 19.9 25.5 66.0 52.1 176.6
07/05 20:00 18.7 32 5.12 1.7 22 30 1024 0 12.0 19.9 25.6 66.4 52.6 178.4
07/05 19:50 18.8 32 5.15 1.8 22 26 1023.9 0 12.1 19.9 25.6 66.5 52.9 179.3
07/05 19:40 18.9 32 5.18 1.9 19 24 1023.8 0 12.2 19.9 25.7 66.7 53.2 180.2
07/05 19:30 19.1 31 5.08 1.6 20 32 1023.7 0 11.9 19.8 25.3 65.7 51.9 176.0
07/05 19:20 19.3 31 5.14 1.8 22 26 1023.6 0 12.1 19.8 25.5 66.0 52.5 177.8
07/05 19:10 19.4 31 5.17 1.9 19 20 1023.4 0 12.1 19.8 25.5 66.2 52.7 178.7
07/05 19:00 19.5 31 5.2 1.9 20 30 1023.3 0 12.2 19.8 25.6 66.4 53.0 179.6
07/05 18:50 19.7 30 5.09 1.7 22 28 1023.2 0 11.9 19.6 25.2 65.2 51.6 175.0
07/05 18:40 19.9 30 5.15 1.8 24 30 1023 0 12.1 19.7 25.3 65.6 52.2 176.8
07/05 18:30 20.1 30 5.21 2 24 35 1022.9 0 12.2 19.7 25.4 65.9 52.7 178.7
07/05 18:20 20.2 30 5.25 2.1 24 28 1022.8 0 12.3 19.7 25.5 66.2 53.0 179.9
07/05 18:10 20.4 29 5.13 1.8 19 22 1022.7 0 12.0 19.5 25.1 65.0 51.6 175.0
07/05 18:00 20.5 29 5.16 1.9 22 32 1022.6 0 12.1 19.5 25.1 65.2 51.9 175.9
07/05 17:50 20.7 28 5.04 1.6 20 26 1022.5 0 11.8 19.3 24.7 64.0 50.5 171.0
07/05 17:40 20.9 27 4.92 1.2 22 26 1022.3 0 11.6 19.1 24.2 62.8 49.1 166.1
07/05 17:30 21.1 27 4.97 1.4 24 32 1022.3 0 11.7 19.2 24.3 63.1 49.5 167.5
07/05 17:20 21.4 26 4.87 1.1 28 32 1022.2 0 11.4 19.0 23.9 62.0 48.2 163.2
07/05 17:10 21.7 26 4.96 1.4 26 28 1022.2 0 11.6 19.0 24.1 62.5 49.0 166.0
07/05 17:00 22 25 4.85 1.1 26 35 1022.1 0 11.4 18.8 23.7 61.4 47.7 161.3
07/05 16:50 22 26 5.05 1.6 32 35 1022.1 0 11.8 19.1 24.3 63.0 49.8 168.6

Last Refresh: 08-May-2026 11:03:36

Bureau of Meteorology